sensor_id;sensor_type;location;lat;lon;timestamp;P1;durP1;ratioP1;P2;durP2;ratioP2
15402;SDS011;7799;53.478;10.170;2023-07-13T00:02:15;0.50;;;0.50;;
15402;SDS011;7799;53.478;10.170;2023-07-13T00:04:42;0.80;;;0.80;;
15402;SDS011;7799;53.478;10.170;2023-07-13T00:07:08;0.97;;;0.87;;
15402;SDS011;7799;53.478;10.170;2023-07-13T00:09:36;1.10;;;0.80;;
15402;SDS011;7799;53.478;10.170;2023-07-13T00:12:03;0.93;;;0.90;;
15402;SDS011;7799;53.478;10.170;2023-07-13T00:14:32;0.60;;;0.60;;
15402;SDS011;7799;53.478;10.170;2023-07-13T00:16:59;0.97;;;0.97;;
15402;SDS011;7799;53.478;10.170;2023-07-13T00:19:26;0.63;;;0.63;;
15402;SDS011;7799;53.478;10.170;2023-07-13T00:21:52;0.87;;;0.87;;
15402;SDS011;7799;53.478;10.170;2023-07-13T00:24:20;0.60;;;0.60;;
15402;SDS011;7799;53.478;10.170;2023-07-13T00:26:50;0.50;;;0.50;;
15402;SDS011;7799;53.478;10.170;2023-07-13T00:29:17;0.80;;;0.80;;
15402;SDS011;7799;53.478;10.170;2023-07-13T00:31:43;0.90;;;0.90;;
15402;SDS011;7799;53.478;10.170;2023-07-13T00:34:11;0.80;;;0.80;;
15402;SDS011;7799;53.478;10.170;2023-07-13T00:36:38;1.33;;;1.13;;
15402;SDS011;7799;53.478;10.170;2023-07-13T00:39:04;1.00;;;1.00;;
15402;SDS011;7799;53.478;10.170;2023-07-13T00:41:31;0.70;;;0.70;;
15402;SDS011;7799;53.478;10.170;2023-07-13T00:44:00;0.83;;;0.83;;
15402;SDS011;7799;53.478;10.170;2023-07-13T00:46:28;0.80;;;0.80;;
15402;SDS011;7799;53.478;10.170;2023-07-13T00:48:57;0.60;;;0.60;;
15402;SDS011;7799;53.478;10.170;2023-07-13T00:51:27;0.70;;;0.70;;
15402;SDS011;7799;53.478;10.170;2023-07-13T00:53:58;0.53;;;0.53;;
15402;SDS011;7799;53.478;10.170;2023-07-13T00:56:27;1.03;;;0.93;;
15402;SDS011;7799;53.478;10.170;2023-07-13T00:58:54;1.23;;;0.77;;
15402;SDS011;7799;53.478;10.170;2023-07-13T01:01:23;0.70;;;0.70;;
15402;SDS011;7799;53.478;10.170;2023-07-13T01:03:49;0.60;;;0.60;;
15402;SDS011;7799;53.478;10.170;2023-07-13T01:06:16;0.73;;;0.73;;
15402;SDS011;7799;53.478;10.170;2023-07-13T01:08:43;0.57;;;0.57;;
15402;SDS011;7799;53.478;10.170;2023-07-13T01:11:10;0.60;;;0.60;;
15402;SDS011;7799;53.478;10.170;2023-07-13T01:13:36;0.70;;;0.70;;
15402;SDS011;7799;53.478;10.170;2023-07-13T01:16:04;0.60;;;0.60;;
15402;SDS011;7799;53.478;10.170;2023-07-13T01:18:37;0.67;;;0.60;;
15402;SDS011;7799;53.478;10.170;2023-07-13T01:21:05;0.87;;;0.87;;
15402;SDS011;7799;53.478;10.170;2023-07-13T01:23:32;0.60;;;0.60;;
15402;SDS011;7799;53.478;10.170;2023-07-13T01:25:59;0.70;;;0.70;;
15402;SDS011;7799;53.478;10.170;2023-07-13T01:28:26;0.70;;;0.70;;
15402;SDS011;7799;53.478;10.170;2023-07-13T01:30:54;0.90;;;0.80;;
15402;SDS011;7799;53.478;10.170;2023-07-13T01:33:21;1.00;;;1.00;;
15402;SDS011;7799;53.478;10.170;2023-07-13T01:35:49;0.80;;;0.80;;
15402;SDS011;7799;53.478;10.170;2023-07-13T01:38:20;0.60;;;0.60;;
15402;SDS011;7799;53.478;10.170;2023-07-13T01:40:48;0.70;;;0.70;;
15402;SDS011;7799;53.478;10.170;2023-07-13T01:43:15;0.70;;;0.70;;
15402;SDS011;7799;53.478;10.170;2023-07-13T01:45:43;0.70;;;0.70;;
15402;SDS011;7799;53.478;10.170;2023-07-13T01:48:10;0.93;;;0.93;;
15402;SDS011;7799;53.478;10.170;2023-07-13T01:50:37;0.80;;;0.80;;
15402;SDS011;7799;53.478;10.170;2023-07-13T01:53:04;0.77;;;0.73;;
15402;SDS011;7799;53.478;10.170;2023-07-13T01:55:33;0.80;;;0.80;;
15402;SDS011;7799;53.478;10.170;2023-07-13T01:58:01;0.70;;;0.70;;
15402;SDS011;7799;53.478;10.170;2023-07-13T02:00:28;1.70;;;1.30;;
15402;SDS011;7799;53.478;10.170;2023-07-13T02:02:55;1.00;;;1.00;;
15402;SDS011;7799;53.478;10.170;2023-07-13T02:05:21;1.50;;;1.40;;
15402;SDS011;7799;53.478;10.170;2023-07-13T02:07:48;1.40;;;1.30;;
15402;SDS011;7799;53.478;10.170;2023-07-13T02:10:15;1.50;;;1.40;;
15402;SDS011;7799;53.478;10.170;2023-07-13T02:12:43;1.60;;;1.50;;
15402;SDS011;7799;53.478;10.170;2023-07-13T02:15:10;1.23;;;1.03;;
15402;SDS011;7799;53.478;10.170;2023-07-13T02:17:37;1.83;;;1.73;;
15402;SDS011;7799;53.478;10.170;2023-07-13T02:20:04;1.87;;;1.70;;
15402;SDS011;7799;53.478;10.170;2023-07-13T02:22:32;2.10;;;1.90;;
15402;SDS011;7799;53.478;10.170;2023-07-13T02:24:59;1.83;;;1.73;;
15402;SDS011;7799;53.478;10.170;2023-07-13T02:27:25;1.80;;;1.70;;
15402;SDS011;7799;53.478;10.170;2023-07-13T02:29:53;1.50;;;1.40;;
15402;SDS011;7799;53.478;10.170;2023-07-13T02:32:21;1.27;;;1.27;;
15402;SDS011;7799;53.478;10.170;2023-07-13T02:34:50;1.60;;;1.50;;
15402;SDS011;7799;53.478;10.170;2023-07-13T02:37:17;1.40;;;1.30;;
15402;SDS011;7799;53.478;10.170;2023-07-13T02:39:44;1.30;;;1.20;;
15402;SDS011;7799;53.478;10.170;2023-07-13T02:42:11;1.33;;;1.20;;
15402;SDS011;7799;53.478;10.170;2023-07-13T02:44:38;1.30;;;1.30;;
15402;SDS011;7799;53.478;10.170;2023-07-13T02:47:06;1.30;;;1.27;;
15402;SDS011;7799;53.478;10.170;2023-07-13T02:49:33;1.47;;;1.37;;
15402;SDS011;7799;53.478;10.170;2023-07-13T02:51:59;1.33;;;1.27;;
15402;SDS011;7799;53.478;10.170;2023-07-13T02:54:26;1.43;;;1.33;;
15402;SDS011;7799;53.478;10.170;2023-07-13T02:56:53;1.70;;;1.53;;
15402;SDS011;7799;53.478;10.170;2023-07-13T02:59:20;1.43;;;1.33;;
15402;SDS011;7799;53.478;10.170;2023-07-13T03:01:47;1.40;;;1.30;;
15402;SDS011;7799;53.478;10.170;2023-07-13T03:04:15;1.30;;;1.20;;
15402;SDS011;7799;53.478;10.170;2023-07-13T03:06:44;1.00;;;1.00;;
15402;SDS011;7799;53.478;10.170;2023-07-13T03:09:13;1.03;;;1.03;;
15402;SDS011;7799;53.478;10.170;2023-07-13T03:11:42;1.20;;;1.10;;
15402;SDS011;7799;53.478;10.170;2023-07-13T03:14:19;1.00;;;1.00;;
15402;SDS011;7799;53.478;10.170;2023-07-13T03:16:46;0.80;;;0.80;;
15402;SDS011;7799;53.478;10.170;2023-07-13T03:19:15;1.03;;;0.97;;
15402;SDS011;7799;53.478;10.170;2023-07-13T03:21:46;0.70;;;0.70;;
15402;SDS011;7799;53.478;10.170;2023-07-13T03:24:13;0.77;;;0.77;;
15402;SDS011;7799;53.478;10.170;2023-07-13T03:26:41;1.00;;;1.00;;
15402;SDS011;7799;53.478;10.170;2023-07-13T03:29:07;1.13;;;1.13;;
15402;SDS011;7799;53.478;10.170;2023-07-13T03:31:35;1.17;;;1.17;;
15402;SDS011;7799;53.478;10.170;2023-07-13T03:34:02;1.53;;;1.40;;
15402;SDS011;7799;53.478;10.170;2023-07-13T03:36:31;1.00;;;1.00;;
15402;SDS011;7799;53.478;10.170;2023-07-13T03:39:02;1.20;;;1.20;;
15402;SDS011;7799;53.478;10.170;2023-07-13T03:41:36;1.00;;;1.00;;
15402;SDS011;7799;53.478;10.170;2023-07-13T03:44:04;1.40;;;1.30;;
15402;SDS011;7799;53.478;10.170;2023-07-13T03:46:31;1.67;;;1.57;;
15402;SDS011;7799;53.478;10.170;2023-07-13T03:48:58;1.50;;;1.40;;
15402;SDS011;7799;53.478;10.170;2023-07-13T03:51:25;2.10;;;1.53;;
15402;SDS011;7799;53.478;10.170;2023-07-13T03:53:53;1.90;;;1.80;;
15402;SDS011;7799;53.478;10.170;2023-07-13T03:56:21;1.67;;;1.57;;
15402;SDS011;7799;53.478;10.170;2023-07-13T03:58:48;1.67;;;1.57;;
15402;SDS011;7799;53.478;10.170;2023-07-13T04:01:19;2.40;;;2.20;;
15402;SDS011;7799;53.478;10.170;2023-07-13T04:03:47;2.50;;;2.40;;
15402;SDS011;7799;53.478;10.170;2023-07-13T04:06:15;2.50;;;2.30;;
15402;SDS011;7799;53.478;10.170;2023-07-13T04:08:46;2.63;;;2.43;;
15402;SDS011;7799;53.478;10.170;2023-07-13T04:11:16;4.17;;;2.33;;
15402;SDS011;7799;53.478;10.170;2023-07-13T04:13:43;1.80;;;1.70;;
15402;SDS011;7799;53.478;10.170;2023-07-13T04:16:10;2.23;;;2.03;;
15402;SDS011;7799;53.478;10.170;2023-07-13T04:18:37;2.03;;;1.93;;
15402;SDS011;7799;53.478;10.170;2023-07-13T04:21:04;2.30;;;2.00;;
15402;SDS011;7799;53.478;10.170;2023-07-13T04:23:30;1.70;;;1.60;;
15402;SDS011;7799;53.478;10.170;2023-07-13T04:25:57;2.00;;;1.90;;
15402;SDS011;7799;53.478;10.170;2023-07-13T04:28:25;2.50;;;2.30;;
15402;SDS011;7799;53.478;10.170;2023-07-13T04:30:52;3.70;;;3.40;;
15402;SDS011;7799;53.478;10.170;2023-07-13T04:33:19;4.00;;;3.60;;
15402;SDS011;7799;53.478;10.170;2023-07-13T04:35:50;3.77;;;3.47;;
15402;SDS011;7799;53.478;10.170;2023-07-13T04:38:21;3.77;;;3.43;;
15402;SDS011;7799;53.478;10.170;2023-07-13T04:40:49;4.10;;;3.80;;
15402;SDS011;7799;53.478;10.170;2023-07-13T04:43:16;3.67;;;3.37;;
15402;SDS011;7799;53.478;10.170;2023-07-13T04:45:44;3.70;;;3.50;;
15402;SDS011;7799;53.478;10.170;2023-07-13T04:48:11;3.33;;;3.13;;
15402;SDS011;7799;53.478;10.170;2023-07-13T04:50:38;2.80;;;2.60;;
15402;SDS011;7799;53.478;10.170;2023-07-13T04:53:05;2.87;;;2.70;;
15402;SDS011;7799;53.478;10.170;2023-07-13T04:55:32;2.90;;;2.70;;
15402;SDS011;7799;53.478;10.170;2023-07-13T04:57:58;4.00;;;3.60;;
15402;SDS011;7799;53.478;10.170;2023-07-13T05:00:25;3.70;;;3.40;;
15402;SDS011;7799;53.478;10.170;2023-07-13T05:02:53;4.53;;;4.13;;
15402;SDS011;7799;53.478;10.170;2023-07-13T05:05:20;4.70;;;4.23;;
15402;SDS011;7799;53.478;10.170;2023-07-13T05:07:47;3.80;;;3.60;;
15402;SDS011;7799;53.478;10.170;2023-07-13T05:10:13;4.00;;;3.70;;
15402;SDS011;7799;53.478;10.170;2023-07-13T05:12:40;5.10;;;4.57;;
15402;SDS011;7799;53.478;10.170;2023-07-13T05:15:07;4.20;;;3.80;;
15402;SDS011;7799;53.478;10.170;2023-07-13T05:17:34;3.90;;;3.60;;
15402;SDS011;7799;53.478;10.170;2023-07-13T05:20:02;3.40;;;3.10;;
15402;SDS011;7799;53.478;10.170;2023-07-13T05:22:29;5.27;;;3.30;;
15402;SDS011;7799;53.478;10.170;2023-07-13T05:24:55;3.00;;;2.80;;
15402;SDS011;7799;53.478;10.170;2023-07-13T05:27:22;2.60;;;2.40;;
15402;SDS011;7799;53.478;10.170;2023-07-13T05:29:49;2.17;;;2.07;;
15402;SDS011;7799;53.478;10.170;2023-07-13T05:32:16;2.00;;;1.90;;
15402;SDS011;7799;53.478;10.170;2023-07-13T05:34:43;2.00;;;1.90;;
15402;SDS011;7799;53.478;10.170;2023-07-13T05:37:11;1.90;;;1.80;;
15402;SDS011;7799;53.478;10.170;2023-07-13T05:39:38;2.30;;;2.20;;
15402;SDS011;7799;53.478;10.170;2023-07-13T05:42:05;2.70;;;2.50;;
15402;SDS011;7799;53.478;10.170;2023-07-13T05:44:32;3.10;;;2.90;;
15402;SDS011;7799;53.478;10.170;2023-07-13T05:46:59;3.10;;;2.70;;
15402;SDS011;7799;53.478;10.170;2023-07-13T05:49:26;2.90;;;2.70;;
15402;SDS011;7799;53.478;10.170;2023-07-13T05:51:52;2.80;;;2.60;;
15402;SDS011;7799;53.478;10.170;2023-07-13T05:54:20;2.80;;;2.60;;
15402;SDS011;7799;53.478;10.170;2023-07-13T05:56:47;3.27;;;2.17;;
15402;SDS011;7799;53.478;10.170;2023-07-13T05:59:14;3.40;;;2.57;;
15402;SDS011;7799;53.478;10.170;2023-07-13T06:01:40;2.33;;;2.00;;
15402;SDS011;7799;53.478;10.170;2023-07-13T06:04:07;2.07;;;1.90;;
15402;SDS011;7799;53.478;10.170;2023-07-13T06:06:34;2.70;;;1.90;;
15402;SDS011;7799;53.478;10.170;2023-07-13T06:09:01;2.97;;;2.20;;
15402;SDS011;7799;53.478;10.170;2023-07-13T06:11:29;3.20;;;2.10;;
15402;SDS011;7799;53.478;10.170;2023-07-13T06:13:56;3.87;;;2.47;;
15402;SDS011;7799;53.478;10.170;2023-07-13T06:16:23;3.37;;;2.40;;
15402;SDS011;7799;53.478;10.170;2023-07-13T06:18:49;2.60;;;2.03;;
15402;SDS011;7799;53.478;10.170;2023-07-13T06:21:18;2.20;;;2.00;;
15402;SDS011;7799;53.478;10.170;2023-07-13T06:23:46;2.70;;;2.00;;
15402;SDS011;7799;53.478;10.170;2023-07-13T06:26:16;2.67;;;1.90;;
15402;SDS011;7799;53.478;10.170;2023-07-13T06:28:44;2.70;;;1.70;;
15402;SDS011;7799;53.478;10.170;2023-07-13T06:31:11;5.43;;;1.90;;
15402;SDS011;7799;53.478;10.170;2023-07-13T06:33:38;2.43;;;1.60;;
15402;SDS011;7799;53.478;10.170;2023-07-13T06:36:06;2.37;;;1.50;;
15402;SDS011;7799;53.478;10.170;2023-07-13T06:38:33;4.70;;;1.77;;
15402;SDS011;7799;53.478;10.170;2023-07-13T06:40:59;3.37;;;1.80;;
15402;SDS011;7799;53.478;10.170;2023-07-13T06:43:26;3.27;;;1.60;;
15402;SDS011;7799;53.478;10.170;2023-07-13T06:45:55;1.60;;;1.50;;
15402;SDS011;7799;53.478;10.170;2023-07-13T06:48:22;2.80;;;1.30;;
15402;SDS011;7799;53.478;10.170;2023-07-13T06:50:49;1.50;;;1.40;;
15402;SDS011;7799;53.478;10.170;2023-07-13T06:53:17;1.47;;;1.23;;
15402;SDS011;7799;53.478;10.170;2023-07-13T06:55:44;2.00;;;1.50;;
15402;SDS011;7799;53.478;10.170;2023-07-13T06:58:11;1.57;;;1.13;;
15402;SDS011;7799;53.478;10.170;2023-07-13T07:00:38;1.83;;;1.40;;
15402;SDS011;7799;53.478;10.170;2023-07-13T07:03:07;1.57;;;1.47;;
15402;SDS011;7799;53.478;10.170;2023-07-13T07:05:33;1.73;;;1.33;;
15402;SDS011;7799;53.478;10.170;2023-07-13T07:08:00;2.27;;;1.60;;
15402;SDS011;7799;53.478;10.170;2023-07-13T07:10:29;1.83;;;1.13;;
15402;SDS011;7799;53.478;10.170;2023-07-13T07:12:56;1.87;;;1.30;;
15402;SDS011;7799;53.478;10.170;2023-07-13T07:15:23;2.00;;;1.30;;
15402;SDS011;7799;53.478;10.170;2023-07-13T07:17:50;2.07;;;1.37;;
15402;SDS011;7799;53.478;10.170;2023-07-13T07:20:18;1.73;;;1.20;;
15402;SDS011;7799;53.478;10.170;2023-07-13T07:22:45;2.03;;;1.50;;
15402;SDS011;7799;53.478;10.170;2023-07-13T07:25:12;1.20;;;1.10;;
15402;SDS011;7799;53.478;10.170;2023-07-13T07:27:39;1.57;;;1.47;;
15402;SDS011;7799;53.478;10.170;2023-07-13T07:30:06;3.10;;;1.60;;
15402;SDS011;7799;53.478;10.170;2023-07-13T07:32:33;1.57;;;1.20;;
15402;SDS011;7799;53.478;10.170;2023-07-13T07:35:00;1.33;;;1.17;;
15402;SDS011;7799;53.478;10.170;2023-07-13T07:37:28;1.40;;;1.23;;
15402;SDS011;7799;53.478;10.170;2023-07-13T07:39:55;1.50;;;1.10;;
15402;SDS011;7799;53.478;10.170;2023-07-13T07:42:23;2.23;;;1.63;;
15402;SDS011;7799;53.478;10.170;2023-07-13T07:44:51;2.13;;;1.40;;
15402;SDS011;7799;53.478;10.170;2023-07-13T07:47:18;1.87;;;1.50;;
15402;SDS011;7799;53.478;10.170;2023-07-13T07:49:44;1.53;;;1.30;;
15402;SDS011;7799;53.478;10.170;2023-07-13T07:52:14;1.43;;;1.33;;
15402;SDS011;7799;53.478;10.170;2023-07-13T07:54:42;1.83;;;1.33;;
15402;SDS011;7799;53.478;10.170;2023-07-13T07:57:09;1.57;;;1.40;;
15402;SDS011;7799;53.478;10.170;2023-07-13T07:59:36;2.53;;;1.40;;
15402;SDS011;7799;53.478;10.170;2023-07-13T08:02:03;2.03;;;1.40;;
15402;SDS011;7799;53.478;10.170;2023-07-13T08:04:30;1.50;;;1.30;;
15402;SDS011;7799;53.478;10.170;2023-07-13T08:06:56;2.60;;;1.50;;
15402;SDS011;7799;53.478;10.170;2023-07-13T08:09:23;2.03;;;1.40;;
15402;SDS011;7799;53.478;10.170;2023-07-13T08:11:51;1.57;;;1.23;;
15402;SDS011;7799;53.478;10.170;2023-07-13T08:14:19;1.17;;;1.07;;
15402;SDS011;7799;53.478;10.170;2023-07-13T08:16:46;1.77;;;1.50;;
15402;SDS011;7799;53.478;10.170;2023-07-13T08:19:13;2.47;;;1.50;;
15402;SDS011;7799;53.478;10.170;2023-07-13T08:21:39;3.07;;;1.97;;
15402;SDS011;7799;53.478;10.170;2023-07-13T08:24:07;2.10;;;1.33;;
15402;SDS011;7799;53.478;10.170;2023-07-13T08:26:34;2.00;;;1.30;;
15402;SDS011;7799;53.478;10.170;2023-07-13T08:29:02;1.60;;;1.50;;
15402;SDS011;7799;53.478;10.170;2023-07-13T08:31:28;2.10;;;1.50;;
15402;SDS011;7799;53.478;10.170;2023-07-13T08:33:55;1.40;;;1.23;;
15402;SDS011;7799;53.478;10.170;2023-07-13T08:36:22;1.60;;;1.37;;
15402;SDS011;7799;53.478;10.170;2023-07-13T08:38:48;2.40;;;1.70;;
15402;SDS011;7799;53.478;10.170;2023-07-13T08:41:16;2.10;;;1.70;;
15402;SDS011;7799;53.478;10.170;2023-07-13T08:43:45;1.40;;;1.30;;
15402;SDS011;7799;53.478;10.170;2023-07-13T08:46:15;2.43;;;1.30;;
15402;SDS011;7799;53.478;10.170;2023-07-13T08:48:46;2.50;;;1.40;;
15402;SDS011;7799;53.478;10.170;2023-07-13T08:51:20;2.73;;;1.60;;
15402;SDS011;7799;53.478;10.170;2023-07-13T08:53:57;3.03;;;1.60;;
15402;SDS011;7799;53.478;10.170;2023-07-13T08:56:25;2.03;;;1.20;;
15402;SDS011;7799;53.478;10.170;2023-07-13T08:58:55;1.30;;;1.20;;
15402;SDS011;7799;53.478;10.170;2023-07-13T09:01:28;1.47;;;1.30;;
15402;SDS011;7799;53.478;10.170;2023-07-13T09:03:59;1.80;;;1.15;;
15402;SDS011;7799;53.478;10.170;2023-07-13T09:06:34;2.53;;;1.30;;
15402;SDS011;7799;53.478;10.170;2023-07-13T09:09:10;1.57;;;1.10;;
15402;SDS011;7799;53.478;10.170;2023-07-13T09:11:47;1.20;;;1.10;;
15402;SDS011;7799;53.478;10.170;2023-07-13T09:14:26;1.37;;;1.20;;
15402;SDS011;7799;53.478;10.170;2023-07-13T09:17:00;2.83;;;1.47;;
15402;SDS011;7799;53.478;10.170;2023-07-13T09:19:28;1.30;;;1.20;;
15402;SDS011;7799;53.478;10.170;2023-07-13T09:21:57;2.10;;;1.20;;
15402;SDS011;7799;53.478;10.170;2023-07-13T09:24:31;1.80;;;1.35;;
15402;SDS011;7799;53.478;10.170;2023-07-13T09:27:03;1.67;;;1.58;;
15402;SDS011;7799;53.478;10.170;2023-07-13T09:29:36;2.22;;;1.52;;
15402;SDS011;7799;53.478;10.170;2023-07-13T09:32:06;1.27;;;1.20;;
15402;SDS011;7799;53.478;10.170;2023-07-13T09:37:03;1.77;;;1.50;;
15402;SDS011;7799;53.478;10.170;2023-07-13T09:39:31;1.83;;;1.40;;
15402;SDS011;7799;53.478;10.170;2023-07-13T09:42:03;1.90;;;1.80;;
15402;SDS011;7799;53.478;10.170;2023-07-13T09:44:34;1.73;;;1.63;;
15402;SDS011;7799;53.478;10.170;2023-07-13T09:47:02;1.88;;;1.70;;
15402;SDS011;7799;53.478;10.170;2023-07-13T09:49:33;2.85;;;1.90;;
15402;SDS011;7799;53.478;10.170;2023-07-13T09:52:02;2.13;;;1.98;;
15402;SDS011;7799;53.478;10.170;2023-07-13T09:54:32;1.80;;;1.70;;
15402;SDS011;7799;53.478;10.170;2023-07-13T09:57:00;2.15;;;1.80;;
15402;SDS011;7799;53.478;10.170;2023-07-13T09:59:29;2.72;;;1.90;;
15402;SDS011;7799;53.478;10.170;2023-07-13T10:01:57;1.80;;;1.70;;
15402;SDS011;7799;53.478;10.170;2023-07-13T10:04:26;1.75;;;1.63;;
15402;SDS011;7799;53.478;10.170;2023-07-13T10:07:03;1.65;;;1.55;;
15402;SDS011;7799;53.478;10.170;2023-07-13T10:09:31;1.50;;;1.40;;
15402;SDS011;7799;53.478;10.170;2023-07-13T10:11:57;2.40;;;1.55;;
15402;SDS011;7799;53.478;10.170;2023-07-13T10:14:24;1.60;;;1.50;;
15402;SDS011;7799;53.478;10.170;2023-07-13T10:16:52;2.25;;;1.73;;
15402;SDS011;7799;53.478;10.170;2023-07-13T10:19:24;1.98;;;1.50;;
15402;SDS011;7799;53.478;10.170;2023-07-13T10:21:52;1.50;;;1.40;;
15402;SDS011;7799;53.478;10.170;2023-07-13T10:24:22;2.03;;;1.77;;
15402;SDS011;7799;53.478;10.170;2023-07-13T10:26:52;1.40;;;1.30;;
15402;SDS011;7799;53.478;10.170;2023-07-13T10:29:42;1.40;;;1.30;;
15402;SDS011;7799;53.478;10.170;2023-07-13T10:32:12;2.03;;;1.50;;
15402;SDS011;7799;53.478;10.170;2023-07-13T10:34:39;1.48;;;1.20;;
15402;SDS011;7799;53.478;10.170;2023-07-13T10:37:06;1.70;;;1.40;;
15402;SDS011;7799;53.478;10.170;2023-07-13T10:39:36;2.67;;;1.40;;
15402;SDS011;7799;53.478;10.170;2023-07-13T10:42:04;1.52;;;1.42;;
15402;SDS011;7799;53.478;10.170;2023-07-13T10:44:32;1.50;;;1.40;;
15402;SDS011;7799;53.478;10.170;2023-07-13T10:47:00;2.22;;;1.40;;
15402;SDS011;7799;53.478;10.170;2023-07-13T10:49:28;1.20;;;1.10;;
15402;SDS011;7799;53.478;10.170;2023-07-13T10:51:57;1.17;;;1.08;;
15402;SDS011;7799;53.478;10.170;2023-07-13T10:54:26;1.53;;;1.37;;
15402;SDS011;7799;53.478;10.170;2023-07-13T10:57:07;1.37;;;1.20;;
15402;SDS011;7799;53.478;10.170;2023-07-13T10:59:41;1.63;;;1.50;;
15402;SDS011;7799;53.478;10.170;2023-07-13T11:02:13;1.98;;;1.40;;
15402;SDS011;7799;53.478;10.170;2023-07-13T11:04:47;1.90;;;1.70;;
15402;SDS011;7799;53.478;10.170;2023-07-13T11:07:19;2.70;;;1.50;;
15402;SDS011;7799;53.478;10.170;2023-07-13T11:09:49;1.80;;;1.40;;
15402;SDS011;7799;53.478;10.170;2023-07-13T11:15:30;2.20;;;1.67;;
15402;SDS011;7799;53.478;10.170;2023-07-13T11:18:02;1.45;;;1.30;;
15402;SDS011;7799;53.478;10.170;2023-07-13T11:20:36;1.67;;;1.33;;
15402;SDS011;7799;53.478;10.170;2023-07-13T11:25:56;1.30;;;1.20;;
15402;SDS011;7799;53.478;10.170;2023-07-13T11:28:26;1.35;;;1.20;;
15402;SDS011;7799;53.478;10.170;2023-07-13T11:31:01;1.33;;;1.23;;
15402;SDS011;7799;53.478;10.170;2023-07-13T11:33:44;1.40;;;1.30;;
15402;SDS011;7799;53.478;10.170;2023-07-13T11:36:16;1.45;;;1.35;;
15402;SDS011;7799;53.478;10.170;2023-07-13T11:38:48;1.63;;;1.13;;
15402;SDS011;7799;53.478;10.170;2023-07-13T11:41:19;1.05;;;1.05;;
15402;SDS011;7799;53.478;10.170;2023-07-13T11:43:50;1.23;;;1.13;;
15402;SDS011;7799;53.478;10.170;2023-07-13T11:46:19;1.90;;;1.20;;
15402;SDS011;7799;53.478;10.170;2023-07-13T11:48:48;1.00;;;1.00;;
15402;SDS011;7799;53.478;10.170;2023-07-13T11:51:19;1.58;;;1.10;;
15402;SDS011;7799;53.478;10.170;2023-07-13T11:53:48;1.85;;;1.10;;
15402;SDS011;7799;53.478;10.170;2023-07-13T11:56:15;1.10;;;1.00;;
15402;SDS011;7799;53.478;10.170;2023-07-13T11:58:42;1.77;;;1.30;;
15402;SDS011;7799;53.478;10.170;2023-07-13T12:01:15;1.17;;;1.08;;
15402;SDS011;7799;53.478;10.170;2023-07-13T12:03:44;1.98;;;1.10;;
15402;SDS011;7799;53.478;10.170;2023-07-13T12:06:21;2.95;;;1.20;;
15402;SDS011;7799;53.478;10.170;2023-07-13T12:08:50;2.28;;;1.15;;
15402;SDS011;7799;53.478;10.170;2023-07-13T12:11:18;1.20;;;1.10;;
15402;SDS011;7799;53.478;10.170;2023-07-13T12:13:46;0.88;;;0.77;;
15402;SDS011;7799;53.478;10.170;2023-07-13T12:16:17;0.98;;;0.75;;
15402;SDS011;7799;53.478;10.170;2023-07-13T12:18:47;1.00;;;0.90;;
15402;SDS011;7799;53.478;10.170;2023-07-13T12:21:16;1.33;;;1.10;;
15402;SDS011;7799;53.478;10.170;2023-07-13T12:23:44;1.23;;;0.98;;
15402;SDS011;7799;53.478;10.170;2023-07-13T12:26:11;1.17;;;0.90;;
15402;SDS011;7799;53.478;10.170;2023-07-13T12:28:44;0.98;;;0.90;;
15402;SDS011;7799;53.478;10.170;2023-07-13T12:31:22;0.73;;;0.70;;
15402;SDS011;7799;53.478;10.170;2023-07-13T12:33:55;1.80;;;1.10;;
15402;SDS011;7799;53.478;10.170;2023-07-13T12:36:23;3.13;;;1.10;;
15402;SDS011;7799;53.478;10.170;2023-07-13T12:38:50;1.35;;;0.95;;
15402;SDS011;7799;53.478;10.170;2023-07-13T12:41:17;1.60;;;1.00;;
15402;SDS011;7799;53.478;10.170;2023-07-13T12:43:44;1.20;;;0.83;;
15402;SDS011;7799;53.478;10.170;2023-07-13T12:46:15;2.13;;;1.00;;
15402;SDS011;7799;53.478;10.170;2023-07-13T12:48:47;1.50;;;0.93;;
15402;SDS011;7799;53.478;10.170;2023-07-13T12:51:15;1.70;;;0.80;;
15402;SDS011;7799;53.478;10.170;2023-07-13T12:53:43;0.70;;;0.70;;
15402;SDS011;7799;53.478;10.170;2023-07-13T12:56:16;1.63;;;0.80;;
15402;SDS011;7799;53.478;10.170;2023-07-13T12:58:45;1.57;;;0.70;;
15402;SDS011;7799;53.478;10.170;2023-07-13T13:01:20;1.43;;;0.90;;
15402;SDS011;7799;53.478;10.170;2023-07-13T13:03:49;1.50;;;0.80;;
15402;SDS011;7799;53.478;10.170;2023-07-13T13:06:21;1.17;;;0.77;;
15402;SDS011;7799;53.478;10.170;2023-07-13T13:08:50;1.33;;;0.77;;
15402;SDS011;7799;53.478;10.170;2023-07-13T13:11:18;0.80;;;0.80;;
15402;SDS011;7799;53.478;10.170;2023-07-13T13:13:45;1.07;;;0.80;;
15402;SDS011;7799;53.478;10.170;2023-07-13T13:16:14;0.80;;;0.67;;
15402;SDS011;7799;53.478;10.170;2023-07-13T13:18:45;0.90;;;0.80;;
15402;SDS011;7799;53.478;10.170;2023-07-13T13:21:14;0.63;;;0.63;;
15402;SDS011;7799;53.478;10.170;2023-07-13T13:23:41;0.87;;;0.70;;
15402;SDS011;7799;53.478;10.170;2023-07-13T13:26:10;1.97;;;1.17;;
15402;SDS011;7799;53.478;10.170;2023-07-13T13:28:37;0.93;;;0.73;;
15402;SDS011;7799;53.478;10.170;2023-07-13T13:31:04;0.80;;;0.80;;
15402;SDS011;7799;53.478;10.170;2023-07-13T13:33:30;1.20;;;0.83;;
15402;SDS011;7799;53.478;10.170;2023-07-13T13:35:58;0.83;;;0.70;;
15402;SDS011;7799;53.478;10.170;2023-07-13T13:38:26;0.87;;;0.70;;
15402;SDS011;7799;53.478;10.170;2023-07-13T13:40:53;0.80;;;0.80;;
15402;SDS011;7799;53.478;10.170;2023-07-13T13:43:22;1.63;;;1.03;;
15402;SDS011;7799;53.478;10.170;2023-07-13T13:45:52;0.70;;;0.70;;
15402;SDS011;7799;53.478;10.170;2023-07-13T13:48:20;0.70;;;0.70;;
15402;SDS011;7799;53.478;10.170;2023-07-13T13:50:52;0.83;;;0.77;;
15402;SDS011;7799;53.478;10.170;2023-07-13T13:53:19;1.13;;;0.87;;
15402;SDS011;7799;53.478;10.170;2023-07-13T13:55:47;0.80;;;0.80;;
15402;SDS011;7799;53.478;10.170;2023-07-13T13:58:14;1.00;;;1.00;;
15402;SDS011;7799;53.478;10.170;2023-07-13T14:00:40;1.03;;;1.03;;
15402;SDS011;7799;53.478;10.170;2023-07-13T14:03:13;1.03;;;1.00;;
15402;SDS011;7799;53.478;10.170;2023-07-13T14:05:40;1.23;;;1.13;;
15402;SDS011;7799;53.478;10.170;2023-07-13T14:08:08;1.10;;;0.87;;
15402;SDS011;7799;53.478;10.170;2023-07-13T14:10:39;1.20;;;0.80;;
15402;SDS011;7799;53.478;10.170;2023-07-13T14:13:08;0.97;;;0.90;;
15402;SDS011;7799;53.478;10.170;2023-07-13T14:15:42;0.80;;;0.80;;
15402;SDS011;7799;53.478;10.170;2023-07-13T14:18:09;0.80;;;0.80;;
15402;SDS011;7799;53.478;10.170;2023-07-13T14:20:37;0.70;;;0.70;;
15402;SDS011;7799;53.478;10.170;2023-07-13T14:23:04;0.90;;;0.70;;
15402;SDS011;7799;53.478;10.170;2023-07-13T14:25:30;1.13;;;0.87;;
15402;SDS011;7799;53.478;10.170;2023-07-13T14:27:58;0.80;;;0.80;;
15402;SDS011;7799;53.478;10.170;2023-07-13T14:30:27;0.97;;;0.90;;
15402;SDS011;7799;53.478;10.170;2023-07-13T14:32:53;1.10;;;1.00;;
15402;SDS011;7799;53.478;10.170;2023-07-13T14:35:21;0.90;;;0.90;;
15402;SDS011;7799;53.478;10.170;2023-07-13T14:37:48;1.13;;;1.10;;
15402;SDS011;7799;53.478;10.170;2023-07-13T14:40:15;0.80;;;0.80;;
15402;SDS011;7799;53.478;10.170;2023-07-13T14:42:43;1.37;;;0.90;;
15402;SDS011;7799;53.478;10.170;2023-07-13T14:45:13;0.90;;;0.90;;
15402;SDS011;7799;53.478;10.170;2023-07-13T14:47:43;0.90;;;0.90;;
15402;SDS011;7799;53.478;10.170;2023-07-13T14:50:14;0.93;;;0.73;;
15402;SDS011;7799;53.478;10.170;2023-07-13T14:52:41;0.80;;;0.80;;
15402;SDS011;7799;53.478;10.170;2023-07-13T14:55:10;0.70;;;0.70;;
15402;SDS011;7799;53.478;10.170;2023-07-13T14:57:37;0.63;;;0.63;;
15402;SDS011;7799;53.478;10.170;2023-07-13T15:00:05;1.30;;;0.90;;
15402;SDS011;7799;53.478;10.170;2023-07-13T15:02:35;1.00;;;0.70;;
15402;SDS011;7799;53.478;10.170;2023-07-13T15:05:08;0.70;;;0.70;;